sensor_id;sensor_type;location;lat;lon;timestamp;temperature;humidity
21830;DHT22;11077;50.264;6.798;2023-01-13T00:00:38;8.00;99.90
21830;DHT22;11077;50.264;6.798;2023-01-13T00:03:05;8.00;99.90
21830;DHT22;11077;50.264;6.798;2023-01-13T00:05:33;8.00;99.90
21830;DHT22;11077;50.264;6.798;2023-01-13T00:08:00;8.00;99.90
21830;DHT22;11077;50.264;6.798;2023-01-13T00:10:31;8.00;99.90
21830;DHT22;11077;50.264;6.798;2023-01-13T00:12:58;8.00;99.90
21830;DHT22;11077;50.264;6.798;2023-01-13T00:15:25;8.00;99.90
21830;DHT22;11077;50.264;6.798;2023-01-13T00:17:52;8.00;99.90
21830;DHT22;11077;50.264;6.798;2023-01-13T00:20:20;8.00;99.90
21830;DHT22;11077;50.264;6.798;2023-01-13T00:22:47;8.00;99.90
21830;DHT22;11077;50.264;6.798;2023-01-13T00:25:14;8.00;99.90
21830;DHT22;11077;50.264;6.798;2023-01-13T00:27:43;8.00;99.90
21830;DHT22;11077;50.264;6.798;2023-01-13T00:30:11;8.00;99.90
21830;DHT22;11077;50.264;6.798;2023-01-13T00:32:38;8.00;99.90
21830;DHT22;11077;50.264;6.798;2023-01-13T00:35:06;8.00;99.90
21830;DHT22;11077;50.264;6.798;2023-01-13T00:37:35;8.00;99.90
21830;DHT22;11077;50.264;6.798;2023-01-13T00:40:04;8.00;99.90
21830;DHT22;11077;50.264;6.798;2023-01-13T00:42:31;8.00;99.90
21830;DHT22;11077;50.264;6.798;2023-01-13T00:45:17;8.00;99.90
21830;DHT22;11077;50.264;6.798;2023-01-13T00:47:44;8.10;99.90
21830;DHT22;11077;50.264;6.798;2023-01-13T00:50:12;8.00;99.90
21830;DHT22;11077;50.264;6.798;2023-01-13T00:52:39;8.00;99.90
21830;DHT22;11077;50.264;6.798;2023-01-13T00:55:07;8.00;99.90
21830;DHT22;11077;50.264;6.798;2023-01-13T00:57:34;8.00;99.90
21830;DHT22;11077;50.264;6.798;2023-01-13T01:00:02;8.00;99.90
21830;DHT22;11077;50.264;6.798;2023-01-13T01:02:30;8.00;99.90
21830;DHT22;11077;50.264;6.798;2023-01-13T01:04:58;8.10;99.90
21830;DHT22;11077;50.264;6.798;2023-01-13T01:07:25;8.00;99.90
21830;DHT22;11077;50.264;6.798;2023-01-13T01:09:53;8.00;99.90
21830;DHT22;11077;50.264;6.798;2023-01-13T01:12:20;8.00;99.90
21830;DHT22;11077;50.264;6.798;2023-01-13T01:14:47;8.00;99.90
21830;DHT22;11077;50.264;6.798;2023-01-13T01:17:14;8.00;99.90
21830;DHT22;11077;50.264;6.798;2023-01-13T01:19:43;8.10;99.90
21830;DHT22;11077;50.264;6.798;2023-01-13T01:22:10;8.10;99.90
21830;DHT22;11077;50.264;6.798;2023-01-13T01:24:37;8.10;99.90
21830;DHT22;11077;50.264;6.798;2023-01-13T01:27:04;8.00;99.90
21830;DHT22;11077;50.264;6.798;2023-01-13T01:29:32;8.10;99.90
21830;DHT22;11077;50.264;6.798;2023-01-13T01:31:59;8.10;99.90
21830;DHT22;11077;50.264;6.798;2023-01-13T01:34:26;8.10;99.90
21830;DHT22;11077;50.264;6.798;2023-01-13T01:36:54;8.20;99.90
21830;DHT22;11077;50.264;6.798;2023-01-13T01:39:21;8.10;99.90
21830;DHT22;11077;50.264;6.798;2023-01-13T01:41:49;8.00;99.90
21830;DHT22;11077;50.264;6.798;2023-01-13T01:44:54;8.10;99.90
21830;DHT22;11077;50.264;6.798;2023-01-13T01:47:23;8.10;99.90
21830;DHT22;11077;50.264;6.798;2023-01-13T01:49:51;8.10;99.90
21830;DHT22;11077;50.264;6.798;2023-01-13T01:52:24;8.10;99.90
21830;DHT22;11077;50.264;6.798;2023-01-13T01:54:57;8.10;99.90
21830;DHT22;11077;50.264;6.798;2023-01-13T01:57:29;8.10;99.90
21830;DHT22;11077;50.264;6.798;2023-01-13T01:59:59;8.10;99.90
21830;DHT22;11077;50.264;6.798;2023-01-13T02:02:27;8.10;99.90
21830;DHT22;11077;50.264;6.798;2023-01-13T02:04:55;8.10;99.90
21830;DHT22;11077;50.264;6.798;2023-01-13T02:07:26;8.00;99.90
21830;DHT22;11077;50.264;6.798;2023-01-13T02:09:55;8.00;99.90
21830;DHT22;11077;50.264;6.798;2023-01-13T02:12:24;8.00;99.90
21830;DHT22;11077;50.264;6.798;2023-01-13T02:14:55;8.10;99.90
21830;DHT22;11077;50.264;6.798;2023-01-13T02:20:37;8.00;99.90
21830;DHT22;11077;50.264;6.798;2023-01-13T02:27:08;7.40;99.90
21830;DHT22;11077;50.264;6.798;2023-01-13T02:32:59;7.00;99.90
21830;DHT22;11077;50.264;6.798;2023-01-13T02:35:34;7.00;99.90
21830;DHT22;11077;50.264;6.798;2023-01-13T02:38:03;7.00;99.90
21830;DHT22;11077;50.264;6.798;2023-01-13T02:40:34;6.80;99.90
21830;DHT22;11077;50.264;6.798;2023-01-13T02:43:07;6.80;99.90
21830;DHT22;11077;50.264;6.798;2023-01-13T02:45:57;6.70;99.90
21830;DHT22;11077;50.264;6.798;2023-01-13T02:48:27;6.60;99.90
21830;DHT22;11077;50.264;6.798;2023-01-13T02:50:59;6.60;99.90
21830;DHT22;11077;50.264;6.798;2023-01-13T02:53:31;6.60;99.90
21830;DHT22;11077;50.264;6.798;2023-01-13T02:56:02;6.60;99.90
21830;DHT22;11077;50.264;6.798;2023-01-13T02:58:32;6.60;99.90
21830;DHT22;11077;50.264;6.798;2023-01-13T03:01:02;6.60;99.90
21830;DHT22;11077;50.264;6.798;2023-01-13T03:03:30;6.60;99.90
21830;DHT22;11077;50.264;6.798;2023-01-13T03:06:04;6.50;99.90
21830;DHT22;11077;50.264;6.798;2023-01-13T03:08:40;6.50;99.90
21830;DHT22;11077;50.264;6.798;2023-01-13T03:11:13;6.50;99.90
21830;DHT22;11077;50.264;6.798;2023-01-13T03:13:58;6.50;99.90
21830;DHT22;11077;50.264;6.798;2023-01-13T03:16:34;6.40;99.90
21830;DHT22;11077;50.264;6.798;2023-01-13T03:19:15;6.40;99.90
21830;DHT22;11077;50.264;6.798;2023-01-13T03:21:50;6.30;99.90
21830;DHT22;11077;50.264;6.798;2023-01-13T03:24:24;6.20;99.90
21830;DHT22;11077;50.264;6.798;2023-01-13T03:26:57;6.20;99.90
21830;DHT22;11077;50.264;6.798;2023-01-13T03:29:31;6.20;99.90
21830;DHT22;11077;50.264;6.798;2023-01-13T03:32:05;6.10;99.90
21830;DHT22;11077;50.264;6.798;2023-01-13T03:34:37;6.10;99.90
21830;DHT22;11077;50.264;6.798;2023-01-13T03:37:07;6.10;99.90
21830;DHT22;11077;50.264;6.798;2023-01-13T03:39:38;6.00;99.90
21830;DHT22;11077;50.264;6.798;2023-01-13T03:42:08;6.10;99.90
21830;DHT22;11077;50.264;6.798;2023-01-13T03:44:41;6.10;99.90
21830;DHT22;11077;50.264;6.798;2023-01-13T03:47:15;6.00;99.90
21830;DHT22;11077;50.264;6.798;2023-01-13T03:49:52;6.00;99.90
21830;DHT22;11077;50.264;6.798;2023-01-13T03:52:22;6.00;99.90
21830;DHT22;11077;50.264;6.798;2023-01-13T03:54:54;5.90;99.90
21830;DHT22;11077;50.264;6.798;2023-01-13T03:57:26;5.90;99.90
21830;DHT22;11077;50.264;6.798;2023-01-13T03:59:57;5.80;99.90
21830;DHT22;11077;50.264;6.798;2023-01-13T04:02:39;5.80;99.90
21830;DHT22;11077;50.264;6.798;2023-01-13T04:05:12;5.80;99.90
21830;DHT22;11077;50.264;6.798;2023-01-13T04:07:47;5.70;99.90
21830;DHT22;11077;50.264;6.798;2023-01-13T04:10:19;5.70;99.90
21830;DHT22;11077;50.264;6.798;2023-01-13T04:12:51;5.60;99.90
21830;DHT22;11077;50.264;6.798;2023-01-13T04:15:32;5.60;99.90
21830;DHT22;11077;50.264;6.798;2023-01-13T04:18:13;5.60;99.90
21830;DHT22;11077;50.264;6.798;2023-01-13T04:20:41;5.60;99.90
21830;DHT22;11077;50.264;6.798;2023-01-13T04:23:09;5.50;99.90
21830;DHT22;11077;50.264;6.798;2023-01-13T04:25:39;5.50;99.90
21830;DHT22;11077;50.264;6.798;2023-01-13T04:28:06;5.50;99.90
21830;DHT22;11077;50.264;6.798;2023-01-13T04:30:34;5.50;99.90
21830;DHT22;11077;50.264;6.798;2023-01-13T04:33:01;5.40;99.90
21830;DHT22;11077;50.264;6.798;2023-01-13T04:35:32;5.40;99.90
21830;DHT22;11077;50.264;6.798;2023-01-13T04:38:00;5.30;99.90
21830;DHT22;11077;50.264;6.798;2023-01-13T04:40:27;5.30;99.90
21830;DHT22;11077;50.264;6.798;2023-01-13T04:42:54;5.30;99.90
21830;DHT22;11077;50.264;6.798;2023-01-13T04:45:22;5.30;99.90
21830;DHT22;11077;50.264;6.798;2023-01-13T04:47:50;5.30;99.90
21830;DHT22;11077;50.264;6.798;2023-01-13T04:50:17;5.30;99.90
21830;DHT22;11077;50.264;6.798;2023-01-13T04:52:47;5.30;99.90
21830;DHT22;11077;50.264;6.798;2023-01-13T04:55:14;5.30;99.90
21830;DHT22;11077;50.264;6.798;2023-01-13T04:57:41;5.30;99.90
21830;DHT22;11077;50.264;6.798;2023-01-13T05:00:11;5.20;99.90
21830;DHT22;11077;50.264;6.798;2023-01-13T05:02:38;5.20;99.90
21830;DHT22;11077;50.264;6.798;2023-01-13T05:05:08;5.20;99.90
21830;DHT22;11077;50.264;6.798;2023-01-13T05:07:35;5.20;99.90
21830;DHT22;11077;50.264;6.798;2023-01-13T05:10:05;5.20;99.90
21830;DHT22;11077;50.264;6.798;2023-01-13T05:12:32;5.20;99.90
21830;DHT22;11077;50.264;6.798;2023-01-13T05:15:17;5.10;99.90
21830;DHT22;11077;50.264;6.798;2023-01-13T05:18:02;5.10;99.90
21830;DHT22;11077;50.264;6.798;2023-01-13T05:20:29;5.10;99.90
21830;DHT22;11077;50.264;6.798;2023-01-13T05:22:56;5.10;99.90
21830;DHT22;11077;50.264;6.798;2023-01-13T05:25:42;5.10;99.90
21830;DHT22;11077;50.264;6.798;2023-01-13T05:28:09;5.10;99.90
21830;DHT22;11077;50.264;6.798;2023-01-13T05:30:38;5.10;99.90
21830;DHT22;11077;50.264;6.798;2023-01-13T05:33:07;5.00;99.90
21830;DHT22;11077;50.264;6.798;2023-01-13T05:35:37;5.00;99.90
21830;DHT22;11077;50.264;6.798;2023-01-13T05:38:04;5.10;99.90
21830;DHT22;11077;50.264;6.798;2023-01-13T05:40:31;5.10;99.90
21830;DHT22;11077;50.264;6.798;2023-01-13T05:43:18;5.10;99.90
21830;DHT22;11077;50.264;6.798;2023-01-13T05:45:46;5.20;99.90
21830;DHT22;11077;50.264;6.798;2023-01-13T05:48:13;5.10;99.90
21830;DHT22;11077;50.264;6.798;2023-01-13T05:50:41;5.10;99.90
21830;DHT22;11077;50.264;6.798;2023-01-13T05:53:08;5.10;99.90
21830;DHT22;11077;50.264;6.798;2023-01-13T05:55:37;5.10;99.90
21830;DHT22;11077;50.264;6.798;2023-01-13T05:58:06;5.10;99.90
21830;DHT22;11077;50.264;6.798;2023-01-13T06:00:35;5.20;99.90
21830;DHT22;11077;50.264;6.798;2023-01-13T06:03:02;5.20;99.90
21830;DHT22;11077;50.264;6.798;2023-01-13T06:05:30;5.20;99.90
21830;DHT22;11077;50.264;6.798;2023-01-13T06:07:58;5.20;99.90
21830;DHT22;11077;50.264;6.798;2023-01-13T06:10:26;5.20;99.90
21830;DHT22;11077;50.264;6.798;2023-01-13T06:12:53;5.20;99.90
21830;DHT22;11077;50.264;6.798;2023-01-13T06:15:21;5.20;99.90
21830;DHT22;11077;50.264;6.798;2023-01-13T06:17:50;5.20;99.90
21830;DHT22;11077;50.264;6.798;2023-01-13T06:20:17;5.20;99.90
21830;DHT22;11077;50.264;6.798;2023-01-13T06:22:46;5.20;99.90
21830;DHT22;11077;50.264;6.798;2023-01-13T06:25:22;5.10;99.90
21830;DHT22;11077;50.264;6.798;2023-01-13T06:27:53;5.20;99.90
21830;DHT22;11077;50.264;6.798;2023-01-13T06:30:22;5.20;99.90
21830;DHT22;11077;50.264;6.798;2023-01-13T06:32:52;5.20;99.90
21830;DHT22;11077;50.264;6.798;2023-01-13T06:35:25;5.20;99.90
21830;DHT22;11077;50.264;6.798;2023-01-13T06:37:55;5.20;99.90
21830;DHT22;11077;50.264;6.798;2023-01-13T06:40:24;5.20;99.90
21830;DHT22;11077;50.264;6.798;2023-01-13T06:42:53;5.20;99.90
21830;DHT22;11077;50.264;6.798;2023-01-13T06:45:39;5.20;99.90
21830;DHT22;11077;50.264;6.798;2023-01-13T06:48:08;5.20;99.90
21830;DHT22;11077;50.264;6.798;2023-01-13T06:50:35;5.20;99.90
21830;DHT22;11077;50.264;6.798;2023-01-13T06:53:02;5.20;99.90
21830;DHT22;11077;50.264;6.798;2023-01-13T06:55:30;5.20;99.90
21830;DHT22;11077;50.264;6.798;2023-01-13T06:57:57;5.30;99.90
21830;DHT22;11077;50.264;6.798;2023-01-13T07:00:25;5.30;99.90
21830;DHT22;11077;50.264;6.798;2023-01-13T07:02:52;5.30;99.90
21830;DHT22;11077;50.264;6.798;2023-01-13T07:05:21;5.30;99.90
21830;DHT22;11077;50.264;6.798;2023-01-13T07:07:48;5.30;99.90
21830;DHT22;11077;50.264;6.798;2023-01-13T07:10:16;5.30;99.90
21830;DHT22;11077;50.264;6.798;2023-01-13T07:12:47;5.20;99.90
21830;DHT22;11077;50.264;6.798;2023-01-13T07:15:33;5.20;99.90
21830;DHT22;11077;50.264;6.798;2023-01-13T07:18:01;5.20;99.90
21830;DHT22;11077;50.264;6.798;2023-01-13T07:20:31;5.20;99.90
21830;DHT22;11077;50.264;6.798;2023-01-13T07:22:58;5.20;99.90
21830;DHT22;11077;50.264;6.798;2023-01-13T07:25:25;5.10;99.90
21830;DHT22;11077;50.264;6.798;2023-01-13T07:27:54;5.20;99.90
21830;DHT22;11077;50.264;6.798;2023-01-13T07:30:23;5.20;99.90
21830;DHT22;11077;50.264;6.798;2023-01-13T07:32:50;5.10;99.90
21830;DHT22;11077;50.264;6.798;2023-01-13T07:35:17;5.10;99.90
21830;DHT22;11077;50.264;6.798;2023-01-13T07:37:49;5.10;99.90
21830;DHT22;11077;50.264;6.798;2023-01-13T07:40:17;5.10;99.90
21830;DHT22;11077;50.264;6.798;2023-01-13T07:42:44;5.00;99.90
21830;DHT22;11077;50.264;6.798;2023-01-13T07:45:29;5.00;99.90
21830;DHT22;11077;50.264;6.798;2023-01-13T07:47:57;5.00;99.90
21830;DHT22;11077;50.264;6.798;2023-01-13T07:50:24;5.00;99.90
21830;DHT22;11077;50.264;6.798;2023-01-13T07:52:56;5.00;99.90
21830;DHT22;11077;50.264;6.798;2023-01-13T07:55:24;5.00;99.90
21830;DHT22;11077;50.264;6.798;2023-01-13T07:57:51;5.00;99.90
21830;DHT22;11077;50.264;6.798;2023-01-13T08:00:19;5.00;99.90
21830;DHT22;11077;50.264;6.798;2023-01-13T08:02:46;5.00;99.90
21830;DHT22;11077;50.264;6.798;2023-01-13T08:05:14;5.00;99.90
21830;DHT22;11077;50.264;6.798;2023-01-13T08:07:41;4.90;99.90
21830;DHT22;11077;50.264;6.798;2023-01-13T08:10:10;4.90;99.90
21830;DHT22;11077;50.264;6.798;2023-01-13T08:12:38;4.90;99.90
21830;DHT22;11077;50.264;6.798;2023-01-13T08:15:22;4.90;99.90
21830;DHT22;11077;50.264;6.798;2023-01-13T08:17:50;4.90;99.90
21830;DHT22;11077;50.264;6.798;2023-01-13T08:20:17;4.90;99.90
21830;DHT22;11077;50.264;6.798;2023-01-13T08:22:45;4.90;99.90
21830;DHT22;11077;50.264;6.798;2023-01-13T08:25:13;4.90;99.90
21830;DHT22;11077;50.264;6.798;2023-01-13T08:27:42;5.00;99.90
21830;DHT22;11077;50.264;6.798;2023-01-13T08:30:10;5.00;99.90
21830;DHT22;11077;50.264;6.798;2023-01-13T08:32:37;5.00;99.90
21830;DHT22;11077;50.264;6.798;2023-01-13T08:35:05;5.00;99.90
21830;DHT22;11077;50.264;6.798;2023-01-13T08:37:33;5.00;99.90
21830;DHT22;11077;50.264;6.798;2023-01-13T08:40:00;5.10;99.90
21830;DHT22;11077;50.264;6.798;2023-01-13T08:42:28;5.10;99.90
21830;DHT22;11077;50.264;6.798;2023-01-13T08:44:56;5.10;99.90
21830;DHT22;11077;50.264;6.798;2023-01-13T08:47:23;5.10;99.90
21830;DHT22;11077;50.264;6.798;2023-01-13T08:49:50;5.10;99.90
21830;DHT22;11077;50.264;6.798;2023-01-13T08:52:17;5.10;99.90
21830;DHT22;11077;50.264;6.798;2023-01-13T08:54:44;5.20;99.90
21830;DHT22;11077;50.264;6.798;2023-01-13T08:57:12;5.20;99.90
21830;DHT22;11077;50.264;6.798;2023-01-13T08:59:41;5.20;99.90
21830;DHT22;11077;50.264;6.798;2023-01-13T09:02:11;5.20;99.90
21830;DHT22;11077;50.264;6.798;2023-01-13T09:04:39;5.20;99.90
21830;DHT22;11077;50.264;6.798;2023-01-13T09:07:06;5.20;99.90
21830;DHT22;11077;50.264;6.798;2023-01-13T09:09:34;5.20;99.90
21830;DHT22;11077;50.264;6.798;2023-01-13T09:12:01;5.20;99.90
21830;DHT22;11077;50.264;6.798;2023-01-13T09:14:47;5.20;99.90
21830;DHT22;11077;50.264;6.798;2023-01-13T09:17:15;5.30;99.90
21830;DHT22;11077;50.264;6.798;2023-01-13T09:19:43;5.20;99.90
21830;DHT22;11077;50.264;6.798;2023-01-13T09:22:14;5.20;99.90
21830;DHT22;11077;50.264;6.798;2023-01-13T09:24:41;5.10;99.90
21830;DHT22;11077;50.264;6.798;2023-01-13T09:27:09;5.00;99.90
21830;DHT22;11077;50.264;6.798;2023-01-13T09:29:36;4.90;99.90
21830;DHT22;11077;50.264;6.798;2023-01-13T09:32:05;5.00;99.90
21830;DHT22;11077;50.264;6.798;2023-01-13T09:34:33;5.10;99.90
21830;DHT22;11077;50.264;6.798;2023-01-13T09:37:17;5.10;99.90
21830;DHT22;11077;50.264;6.798;2023-01-13T09:39:44;5.20;99.90
21830;DHT22;11077;50.264;6.798;2023-01-13T09:42:18;5.40;99.90
21830;DHT22;11077;50.264;6.798;2023-01-13T09:45:09;5.50;99.90
21830;DHT22;11077;50.264;6.798;2023-01-13T09:47:43;5.60;99.90
21830;DHT22;11077;50.264;6.798;2023-01-13T09:50:26;5.60;99.90
21830;DHT22;11077;50.264;6.798;2023-01-13T09:52:54;5.60;99.90
21830;DHT22;11077;50.264;6.798;2023-01-13T09:55:27;5.70;99.90
21830;DHT22;11077;50.264;6.798;2023-01-13T09:57:56;5.70;99.90
21830;DHT22;11077;50.264;6.798;2023-01-13T10:00:25;5.80;99.90
21830;DHT22;11077;50.264;6.798;2023-01-13T10:03:14;5.80;99.90
21830;DHT22;11077;50.264;6.798;2023-01-13T10:05:47;5.90;99.90
21830;DHT22;11077;50.264;6.798;2023-01-13T10:08:19;5.90;99.90
21830;DHT22;11077;50.264;6.798;2023-01-13T10:10:49;5.90;99.90
21830;DHT22;11077;50.264;6.798;2023-01-13T10:13:20;5.90;99.90
21830;DHT22;11077;50.264;6.798;2023-01-13T10:15:58;5.80;99.90
21830;DHT22;11077;50.264;6.798;2023-01-13T10:18:34;5.90;99.90
21830;DHT22;11077;50.264;6.798;2023-01-13T10:21:15;5.90;99.90
21830;DHT22;11077;50.264;6.798;2023-01-13T10:23:57;6.00;99.90
21830;DHT22;11077;50.264;6.798;2023-01-13T10:26:40;6.10;99.90
21830;DHT22;11077;50.264;6.798;2023-01-13T10:29:19;6.00;99.90
21830;DHT22;11077;50.264;6.798;2023-01-13T10:31:50;6.10;99.90
21830;DHT22;11077;50.264;6.798;2023-01-13T10:34:19;6.10;99.90
21830;DHT22;11077;50.264;6.798;2023-01-13T10:36:55;6.10;99.90
21830;DHT22;11077;50.264;6.798;2023-01-13T10:39:25;6.10;99.90
21830;DHT22;11077;50.264;6.798;2023-01-13T10:42:00;6.20;99.90
21830;DHT22;11077;50.264;6.798;2023-01-13T10:44:28;6.20;99.90
21830;DHT22;11077;50.264;6.798;2023-01-13T10:46:57;6.10;99.90
21830;DHT22;11077;50.264;6.798;2023-01-13T10:49:28;6.20;99.90
21830;DHT22;11077;50.264;6.798;2023-01-13T10:51:57;6.10;99.90
21830;DHT22;11077;50.264;6.798;2023-01-13T10:54:25;6.10;99.90
21830;DHT22;11077;50.264;6.798;2023-01-13T10:57:14;6.10;99.90
21830;DHT22;11077;50.264;6.798;2023-01-13T10:59:44;6.10;99.90
21830;DHT22;11077;50.264;6.798;2023-01-13T11:02:19;6.10;99.90
21830;DHT22;11077;50.264;6.798;2023-01-13T11:05:11;6.10;99.90
21830;DHT22;11077;50.264;6.798;2023-01-13T11:07:47;6.10;99.90
21830;DHT22;11077;50.264;6.798;2023-01-13T11:10:20;6.10;99.90
21830;DHT22;11077;50.264;6.798;2023-01-13T11:12:56;6.10;99.90
21830;DHT22;11077;50.264;6.798;2023-01-13T11:15:38;6.00;99.90
21830;DHT22;11077;50.264;6.798;2023-01-13T11:18:14;6.00;99.90
21830;DHT22;11077;50.264;6.798;2023-01-13T11:20:47;6.00;99.90
21830;DHT22;11077;50.264;6.798;2023-01-13T11:23:19;6.00;99.90
21830;DHT22;11077;50.264;6.798;2023-01-13T11:25:53;5.90;99.90
21830;DHT22;11077;50.264;6.798;2023-01-13T11:28:37;5.90;99.90
21830;DHT22;11077;50.264;6.798;2023-01-13T11:31:12;6.00;99.90
21830;DHT22;11077;50.264;6.798;2023-01-13T11:33:42;6.00;99.90
21830;DHT22;11077;50.264;6.798;2023-01-13T11:36:15;6.00;99.90
21830;DHT22;11077;50.264;6.798;2023-01-13T11:38:46;6.00;99.90
21830;DHT22;11077;50.264;6.798;2023-01-13T11:41:30;6.00;99.90
21830;DHT22;11077;50.264;6.798;2023-01-13T11:44:16;6.10;99.90
21830;DHT22;11077;50.264;6.798;2023-01-13T11:46:47;6.00;99.90
21830;DHT22;11077;50.264;6.798;2023-01-13T11:49:23;6.00;99.90
21830;DHT22;11077;50.264;6.798;2023-01-13T11:51:56;5.90;99.90
21830;DHT22;11077;50.264;6.798;2023-01-13T11:54:43;5.80;99.90
21830;DHT22;11077;50.264;6.798;2023-01-13T11:57:31;5.50;99.90
21830;DHT22;11077;50.264;6.798;2023-01-13T12:03:17;5.10;99.90
21830;DHT22;11077;50.264;6.798;2023-01-13T12:05:58;5.10;99.90
21830;DHT22;11077;50.264;6.798;2023-01-13T12:08:52;5.00;99.90
21830;DHT22;11077;50.264;6.798;2023-01-13T12:11:26;5.00;99.90
21830;DHT22;11077;50.264;6.798;2023-01-13T12:14:07;5.00;99.90
21830;DHT22;11077;50.264;6.798;2023-01-13T12:16:45;4.90;99.90
21830;DHT22;11077;50.264;6.798;2023-01-13T12:19:22;5.10;99.90
21830;DHT22;11077;50.264;6.798;2023-01-13T12:22:06;5.20;99.90
21830;DHT22;11077;50.264;6.798;2023-01-13T12:24:40;5.30;99.90
21830;DHT22;11077;50.264;6.798;2023-01-13T12:27:12;5.40;99.90
21830;DHT22;11077;50.264;6.798;2023-01-13T12:29:43;5.40;99.90
21830;DHT22;11077;50.264;6.798;2023-01-13T12:32:14;5.40;99.90
21830;DHT22;11077;50.264;6.798;2023-01-13T12:35:15;5.40;99.90
21830;DHT22;11077;50.264;6.798;2023-01-13T12:37:49;5.40;99.90
21830;DHT22;11077;50.264;6.798;2023-01-13T12:40:27;5.40;99.90
21830;DHT22;11077;50.264;6.798;2023-01-13T12:43:02;5.40;99.90
21830;DHT22;11077;50.264;6.798;2023-01-13T12:45:51;5.30;99.90
21830;DHT22;11077;50.264;6.798;2023-01-13T12:48:44;5.10;99.90
21830;DHT22;11077;50.264;6.798;2023-01-13T12:51:21;5.10;99.90
21830;DHT22;11077;50.264;6.798;2023-01-13T12:53:48;5.00;99.90
21830;DHT22;11077;50.264;6.798;2023-01-13T12:56:39;5.00;99.90
21830;DHT22;11077;50.264;6.798;2023-01-13T12:59:34;5.00;99.90
21830;DHT22;11077;50.264;6.798;2023-01-13T13:02:28;5.10;99.90
21830;DHT22;11077;50.264;6.798;2023-01-13T13:04:57;5.10;99.90
21830;DHT22;11077;50.264;6.798;2023-01-13T13:07:34;5.20;99.90
21830;DHT22;11077;50.264;6.798;2023-01-13T13:10:15;5.20;99.90
21830;DHT22;11077;50.264;6.798;2023-01-13T13:12:54;5.30;99.90
21830;DHT22;11077;50.264;6.798;2023-01-13T13:15:40;5.40;99.90
21830;DHT22;11077;50.264;6.798;2023-01-13T13:18:25;5.40;99.90
21830;DHT22;11077;50.264;6.798;2023-01-13T13:20:59;5.50;99.90
21830;DHT22;11077;50.264;6.798;2023-01-13T13:27:46;5.60;99.90
21830;DHT22;11077;50.264;6.798;2023-01-13T13:30:28;5.70;99.90
21830;DHT22;11077;50.264;6.798;2023-01-13T13:33:26;5.70;99.90
21830;DHT22;11077;50.264;6.798;2023-01-13T13:36:06;5.60;99.90
21830;DHT22;11077;50.264;6.798;2023-01-13T13:38:54;5.60;99.90
21830;DHT22;11077;50.264;6.798;2023-01-13T13:41:43;5.50;99.90
21830;DHT22;11077;50.264;6.798;2023-01-13T13:44:38;5.50;99.90
21830;DHT22;11077;50.264;6.798;2023-01-13T13:47:25;5.50;99.90
21830;DHT22;11077;50.264;6.798;2023-01-13T13:50:05;5.40;99.90
21830;DHT22;11077;50.264;6.798;2023-01-13T13:52:38;5.50;99.90
21830;DHT22;11077;50.264;6.798;2023-01-13T13:55:14;5.50;99.90
21830;DHT22;11077;50.264;6.798;2023-01-13T13:57:45;5.50;99.90
21830;DHT22;11077;50.264;6.798;2023-01-13T14:00:23;5.40;99.90
21830;DHT22;11077;50.264;6.798;2023-01-13T14:02:56;5.30;99.90
21830;DHT22;11077;50.264;6.798;2023-01-13T14:05:27;5.30;99.90
21830;DHT22;11077;50.264;6.798;2023-01-13T14:07:59;5.40;99.90
21830;DHT22;11077;50.264;6.798;2023-01-13T14:10:29;5.40;99.90
21830;DHT22;11077;50.264;6.798;2023-01-13T14:13:00;5.40;99.90
21830;DHT22;11077;50.264;6.798;2023-01-13T14:15:32;5.40;99.90
21830;DHT22;11077;50.264;6.798;2023-01-13T14:18:03;5.40;99.90
21830;DHT22;11077;50.264;6.798;2023-01-13T14:20:31;5.40;99.90
21830;DHT22;11077;50.264;6.798;2023-01-13T14:23:02;5.40;99.90
21830;DHT22;11077;50.264;6.798;2023-01-13T14:25:33;5.40;99.90
21830;DHT22;11077;50.264;6.798;2023-01-13T14:28:20;5.50;99.90
21830;DHT22;11077;50.264;6.798;2023-01-13T14:30:50;5.50;99.90
21830;DHT22;11077;50.264;6.798;2023-01-13T14:33:26;5.50;99.90
21830;DHT22;11077;50.264;6.798;2023-01-13T14:36:14;5.50;99.90
21830;DHT22;11077;50.264;6.798;2023-01-13T14:38:44;5.50;99.90
21830;DHT22;11077;50.264;6.798;2023-01-13T14:41:17;5.50;99.90
21830;DHT22;11077;50.264;6.798;2023-01-13T14:43:47;5.60;99.90
21830;DHT22;11077;50.264;6.798;2023-01-13T14:46:16;5.60;99.90
21830;DHT22;11077;50.264;6.798;2023-01-13T14:48:47;5.60;99.90
21830;DHT22;11077;50.264;6.798;2023-01-13T14:51:21;5.50;99.90
21830;DHT22;11077;50.264;6.798;2023-01-13T14:53:51;5.50;99.90
21830;DHT22;11077;50.264;6.798;2023-01-13T14:56:43;5.50;99.90
21830;DHT22;11077;50.264;6.798;2023-01-13T14:59:41;5.50;99.90
21830;DHT22;11077;50.264;6.798;2023-01-13T15:02:42;5.50;99.90
21830;DHT22;11077;50.264;6.798;2023-01-13T15:05:37;5.50;99.90
21830;DHT22;11077;50.264;6.798;2023-01-13T15:08:26;5.40;99.90
21830;DHT22;11077;50.264;6.798;2023-01-13T15:10:56;5.40;99.90
21830;DHT22;11077;50.264;6.798;2023-01-13T15:16:16;5.30;99.90
21830;DHT22;11077;50.264;6.798;2023-01-13T15:18:44;5.30;99.90
21830;DHT22;11077;50.264;6.798;2023-01-13T15:21:14;5.30;99.90
21830;DHT22;11077;50.264;6.798;2023-01-13T15:23:41;5.40;99.90
21830;DHT22;11077;50.264;6.798;2023-01-13T15:26:17;5.30;99.90
21830;DHT22;11077;50.264;6.798;2023-01-13T15:28:45;5.30;99.90
21830;DHT22;11077;50.264;6.798;2023-01-13T15:31:13;5.30;99.90
21830;DHT22;11077;50.264;6.798;2023-01-13T15:33:41;5.30;99.90
21830;DHT22;11077;50.264;6.798;2023-01-13T15:39:14;5.30;99.90
21830;DHT22;11077;50.264;6.798;2023-01-13T15:41:45;5.30;99.90
21830;DHT22;11077;50.264;6.798;2023-01-13T15:44:34;5.40;99.90
21830;DHT22;11077;50.264;6.798;2023-01-13T15:47:19;5.30;99.90
21830;DHT22;11077;50.264;6.798;2023-01-13T15:49:48;5.30;99.90
21830;DHT22;11077;50.264;6.798;2023-01-13T15:52:21;5.30;99.90
21830;DHT22;11077;50.264;6.798;2023-01-13T15:54:51;5.40;99.90
21830;DHT22;11077;50.264;6.798;2023-01-13T15:57:21;5.40;99.90
21830;DHT22;11077;50.264;6.798;2023-01-13T15:59:49;5.40;99.90
21830;DHT22;11077;50.264;6.798;2023-01-13T16:02:17;5.40;99.90
21830;DHT22;11077;50.264;6.798;2023-01-13T16:04:47;5.40;99.90
21830;DHT22;11077;50.264;6.798;2023-01-13T16:07:17;5.40;99.90
21830;DHT22;11077;50.264;6.798;2023-01-13T16:09:46;5.40;99.90
21830;DHT22;11077;50.264;6.798;2023-01-13T16:12:17;5.30;99.90
21830;DHT22;11077;50.264;6.798;2023-01-13T16:14:45;5.30;99.90
21830;DHT22;11077;50.264;6.798;2023-01-13T16:17:14;5.30;99.90
21830;DHT22;11077;50.264;6.798;2023-01-13T16:19:42;5.30;99.90
21830;DHT22;11077;50.264;6.798;2023-01-13T16:22:10;5.20;99.90
21830;DHT22;11077;50.264;6.798;2023-01-13T16:24:37;5.30;99.90
21830;DHT22;11077;50.264;6.798;2023-01-13T16:27:12;5.30;99.90
21830;DHT22;11077;50.264;6.798;2023-01-13T16:29:41;5.30;99.90
21830;DHT22;11077;50.264;6.798;2023-01-13T16:32:09;5.30;99.90
21830;DHT22;11077;50.264;6.798;2023-01-13T16:34:37;5.30;99.90
21830;DHT22;11077;50.264;6.798;2023-01-13T16:37:08;5.30;99.90
21830;DHT22;11077;50.264;6.798;2023-01-13T16:39:38;5.30;99.90
21830;DHT22;11077;50.264;6.798;2023-01-13T16:42:06;5.30;99.90